createdAt,value
2023-05-15T14:25:29.989Z,94472.00
2023-05-15T14:26:29.913Z,94471.00
2023-05-15T14:27:29.940Z,94471.00
2023-05-15T14:28:29.936Z,94472.00
2023-05-15T14:29:29.930Z,94470.00
2023-05-15T14:30:29.888Z,94467.00
2023-05-15T14:31:29.928Z,94466.00
2023-05-15T14:32:29.953Z,94469.00
2023-05-15T14:33:29.879Z,94466.00
2023-05-15T14:34:29.870Z,94469.00
2023-05-15T14:35:29.875Z,94469.00
2023-05-15T14:36:29.857Z,94468.00
2023-05-15T14:37:29.875Z,94467.00
2023-05-15T14:38:29.860Z,94463.00
2023-05-15T14:39:29.860Z,94465.00
2023-05-15T14:40:29.841Z,94463.00
2023-05-15T14:41:29.858Z,94463.00
2023-05-15T14:42:29.824Z,94461.00
2023-05-15T14:43:29.826Z,94457.00
2023-05-15T14:44:29.807Z,94460.00
2023-05-15T14:45:29.804Z,94456.00
2023-05-15T14:46:29.843Z,94455.00
2023-05-15T14:47:29.835Z,94456.00
2023-05-15T14:48:29.753Z,94455.00
2023-05-15T14:49:29.764Z,94458.00
2023-05-15T14:50:29.757Z,94460.00
2023-05-15T14:51:29.777Z,94461.00
2023-05-15T14:52:29.769Z,94464.00
2023-05-15T14:53:29.761Z,94463.00
2023-05-15T14:54:29.731Z,94461.00
2023-05-15T14:55:29.725Z,94458.00
2023-05-15T14:56:29.745Z,94464.00
2023-05-15T14:57:29.723Z,94461.00
2023-05-15T14:58:29.805Z,94461.00
2023-05-15T14:59:29.845Z,94462.00
2023-05-15T15:00:29.899Z,94467.00
2023-05-15T15:01:30.037Z,94468.00
2023-05-15T15:02:30.106Z,94470.00
2023-05-15T15:03:31.893Z,94466.00
2023-05-15T15:04:30.106Z,94465.00
2023-05-15T15:05:30.049Z,94465.00
2023-05-15T15:06:30.064Z,94470.00
2023-05-15T15:07:30.065Z,94473.00
2023-05-15T15:08:30.050Z,94472.00
2023-05-15T15:09:30.098Z,94475.00
2023-05-15T15:10:30.024Z,94469.00
2023-05-15T15:11:30.030Z,94470.00
2023-05-15T15:12:30.032Z,94467.00
2023-05-15T15:13:30.036Z,94468.00
2023-05-15T15:14:30.313Z,94469.00
2023-05-15T15:15:30.043Z,94470.00
2023-05-15T15:16:30.025Z,94466.00
2023-05-15T15:17:29.989Z,94467.00
2023-05-15T15:18:30.069Z,94466.00
2023-05-15T15:19:30.066Z,94466.00
2023-05-15T15:20:29.961Z,94461.00
2023-05-15T15:21:30.010Z,94465.00
2023-05-15T15:22:29.971Z,94465.00
2023-05-15T15:23:29.969Z,94466.00
2023-05-15T15:24:29.966Z,94462.00
2023-05-15T15:25:31.456Z,94467.00
2023-05-15T15:26:29.945Z,94468.00
2023-05-15T15:27:29.930Z,94467.00
2023-05-15T15:28:29.945Z,94463.00
2023-05-15T15:29:29.921Z,94465.00
2023-05-15T15:30:29.931Z,94465.00
2023-05-15T15:31:29.959Z,94466.00
2023-05-15T15:32:29.934Z,94469.00
2023-05-15T15:33:29.911Z,94469.00
2023-05-15T15:34:29.916Z,94467.00
2023-05-15T15:35:29.901Z,94469.00
2023-05-15T15:36:29.900Z,94470.00
2023-05-15T15:37:29.863Z,94484.00
2023-05-15T15:38:29.869Z,94476.00
2023-05-15T15:39:29.854Z,94479.00
2023-05-15T15:40:30.027Z,94478.00
2023-05-15T15:41:29.848Z,94478.00
2023-05-15T15:42:29.833Z,94484.00
2023-05-15T15:43:29.851Z,94481.00
2023-05-15T15:44:29.818Z,94480.00
2023-05-15T15:45:29.894Z,94483.00
2023-05-15T15:46:29.819Z,94480.00
2023-05-15T15:47:29.845Z,94481.00
2023-05-15T15:48:29.827Z,94482.00
2023-05-15T15:49:29.803Z,94476.00
2023-05-15T15:50:29.798Z,94479.00
2023-05-15T15:51:29.792Z,94477.00
2023-05-15T15:52:29.770Z,94480.00
2023-05-15T15:53:29.798Z,94475.00
2023-05-15T15:54:29.786Z,94478.00
2023-05-15T15:55:29.742Z,94479.00
2023-05-15T15:56:29.759Z,94480.00
2023-05-15T15:57:29.777Z,94479.00
2023-05-15T15:58:29.740Z,94478.00
2023-05-15T15:59:29.748Z,94480.00
2023-05-15T16:00:29.739Z,94480.00
2023-05-15T16:01:29.763Z,94480.00
2023-05-15T16:02:29.776Z,94485.00
2023-05-15T16:03:29.852Z,94487.00
2023-05-15T16:04:29.715Z,94493.00
2023-05-15T16:05:29.714Z,94490.00
2023-05-15T16:06:29.697Z,94490.00
2023-05-15T16:07:29.707Z,94490.00
2023-05-15T16:08:29.683Z,94494.00
2023-05-15T16:09:29.680Z,94494.00
2023-05-15T16:10:29.810Z,94494.00
2023-05-15T16:11:29.659Z,94497.00
2023-05-15T16:12:29.653Z,94497.00
2023-05-15T16:13:29.669Z,94497.00
2023-05-15T16:14:29.652Z,94498.00
2023-05-15T16:15:29.619Z,94496.00
2023-05-15T16:16:29.640Z,94496.00
2023-05-15T16:17:29.677Z,94495.00
2023-05-15T16:18:29.687Z,94492.00
2023-05-15T16:19:29.628Z,94494.00
2023-05-15T16:20:29.741Z,94494.00
2023-05-15T16:21:29.612Z,94494.00
2023-05-15T16:22:29.594Z,94495.00
2023-05-15T16:23:29.560Z,94494.00
2023-05-15T16:24:29.586Z,94497.00
2023-05-15T16:25:29.593Z,94496.00
2023-05-15T16:26:29.563Z,94496.00
2023-05-15T16:27:29.563Z,94497.00
2023-05-15T16:28:29.540Z,94497.00
2023-05-15T16:29:29.579Z,94499.00
2023-05-15T16:30:44.187Z,94498.00
2023-05-15T16:31:30.595Z,94499.00
2023-05-15T16:32:29.560Z,94501.00
2023-05-15T16:33:29.524Z,94501.00
2023-05-15T16:34:29.502Z,94502.00
2023-05-15T16:35:29.494Z,94506.00
2023-05-15T16:36:29.515Z,94507.00
2023-05-15T16:37:29.481Z,94507.00
2023-05-15T16:38:29.498Z,94509.00
2023-05-15T16:39:29.495Z,94510.00
2023-05-15T16:40:29.448Z,94510.00
2023-05-15T16:41:29.477Z,94509.00
2023-05-15T16:42:29.481Z,94507.00
2023-05-15T16:43:29.463Z,94507.00
2023-05-15T16:44:29.449Z,94508.00
2023-05-15T16:45:29.483Z,94507.00
2023-05-15T16:46:29.523Z,94510.00
2023-05-15T16:47:29.596Z,94512.00
2023-05-15T16:48:29.565Z,94515.00
2023-05-15T16:49:29.595Z,94515.00
2023-05-15T16:50:29.622Z,94514.00
2023-05-15T16:51:29.665Z,94513.00
2023-05-15T16:52:29.694Z,94516.00
2023-05-15T16:53:29.797Z,94517.00
2023-05-15T16:54:29.761Z,94518.00
2023-05-15T16:55:29.794Z,94517.00
2023-05-15T16:56:29.846Z,94519.00
2023-05-15T16:57:29.872Z,94520.00
2023-05-15T16:58:29.887Z,94522.00
2023-05-15T16:59:29.976Z,94522.00
2023-05-15T17:00:29.995Z,94523.00
2023-05-15T17:01:30.072Z,94525.00
2023-05-15T17:02:30.141Z,94528.00
2023-05-15T17:03:30.207Z,94529.00
2023-05-15T17:04:32.725Z,94528.00
2023-05-15T17:05:30.127Z,94531.00
2023-05-15T17:06:30.144Z,94528.00
2023-05-15T17:07:30.128Z,94528.00
2023-05-15T17:08:30.060Z,94533.00
2023-05-15T17:09:30.063Z,94530.00
2023-05-15T17:10:30.066Z,94531.00
2023-05-15T17:11:30.075Z,94529.00
2023-05-15T17:12:30.087Z,94532.00
2023-05-15T17:13:30.050Z,94534.00
2023-05-15T17:14:30.024Z,94535.00
2023-05-15T17:15:30.081Z,94536.00
2023-05-15T17:16:30.164Z,94538.00
2023-05-15T17:17:30.029Z,94538.00
2023-05-15T17:18:30.068Z,94544.00
2023-05-15T17:19:30.048Z,94541.00
2023-05-15T17:20:30.061Z,94543.00
2023-05-15T17:21:29.975Z,94543.00
2023-05-15T17:22:30.010Z,94543.00
2023-05-15T17:23:30.010Z,94544.00
2023-05-15T17:24:38.808Z,94545.00
2023-05-15T17:25:30.986Z,94545.00
2023-05-15T17:26:29.963Z,94547.00
2023-05-15T17:27:29.951Z,94549.00
2023-05-15T17:28:29.964Z,94550.00
2023-05-15T17:29:29.919Z,94550.00
2023-05-15T17:30:30.017Z,94551.00
2023-05-15T17:31:29.932Z,94556.00
2023-05-15T17:32:29.948Z,94554.00
2023-05-15T17:33:29.992Z,94559.00
2023-05-15T17:34:29.901Z,94558.00
2023-05-15T17:35:32.117Z,94561.00
2023-05-15T17:36:29.925Z,94560.00
2023-05-15T17:37:29.906Z,94560.00
2023-05-15T17:38:29.888Z,94560.00
2023-05-15T17:39:29.865Z,94561.00
2023-05-15T17:40:29.908Z,94564.00
2023-05-15T17:41:29.861Z,94564.00
2023-05-15T17:42:29.874Z,94566.00
2023-05-15T17:43:29.876Z,94567.00
2023-05-15T17:44:29.877Z,94569.00
2023-05-15T17:45:29.827Z,94572.00
2023-05-15T17:46:29.846Z,94571.00
2023-05-15T17:47:29.883Z,94573.00
2023-05-15T17:48:29.843Z,94572.00
2023-05-15T17:49:29.818Z,94572.00
2023-05-15T17:50:29.838Z,94572.00
2023-05-15T17:51:29.829Z,94573.00
2023-05-15T17:52:29.812Z,94572.00
2023-05-15T17:53:29.808Z,94573.00
2023-05-15T17:54:29.766Z,94576.00
2023-05-15T17:55:29.794Z,94576.00
2023-05-15T17:56:29.765Z,94577.00
2023-05-15T17:57:29.772Z,94577.00
2023-05-15T17:58:29.780Z,94577.00
2023-05-15T17:59:29.789Z,94581.00
2023-05-15T18:00:29.776Z,94582.00
2023-05-15T18:01:29.772Z,94584.00
2023-05-15T18:02:29.749Z,94585.00
2023-05-15T18:03:29.823Z,94585.00
2023-05-15T18:04:29.762Z,94586.00
2023-05-15T18:05:29.720Z,94585.00
2023-05-15T18:06:29.720Z,94585.00
2023-05-15T18:07:29.713Z,94586.00
2023-05-15T18:08:29.697Z,94586.00
2023-05-15T18:09:29.756Z,94587.00
2023-05-15T18:10:29.718Z,94587.00
2023-05-15T18:11:29.714Z,94587.00
2023-05-15T18:12:29.688Z,94589.00
2023-05-15T18:13:29.669Z,94590.00
2023-05-15T18:14:29.644Z,94590.00
2023-05-15T18:15:29.667Z,94587.00
2023-05-15T18:16:29.755Z,94590.00
2023-05-15T18:17:29.760Z,94589.00
2023-05-15T18:18:29.835Z,94592.00
2023-05-15T18:19:29.826Z,94590.00
2023-05-15T18:20:29.878Z,94590.00
2023-05-15T18:21:29.941Z,94589.00
2023-05-15T18:22:29.954Z,94589.00
2023-05-15T18:23:29.967Z,94588.00
2023-05-15T18:24:29.984Z,94587.00
2023-05-15T18:25:30.018Z,94588.00
2023-05-15T18:26:30.000Z,94587.00
2023-05-15T18:27:30.007Z,94587.00
2023-05-15T18:28:30.001Z,94586.00
2023-05-15T18:29:29.982Z,94587.00
2023-05-15T18:30:29.996Z,94588.00
2023-05-15T18:31:30.110Z,94586.00
2023-05-15T18:32:30.020Z,94589.00
2023-05-15T18:33:30.019Z,94589.00
2023-05-15T18:34:30.018Z,94590.00
2023-05-15T18:35:30.007Z,94590.00
2023-05-15T18:36:30.004Z,94591.00
2023-05-15T18:37:30.017Z,94592.00
2023-05-15T18:38:29.991Z,94594.00
2023-05-15T18:39:30.012Z,94596.00
2023-05-15T18:40:30.031Z,94597.00
2023-05-15T18:41:29.969Z,94597.00
2023-05-15T18:42:29.979Z,94598.00
2023-05-15T18:43:30.017Z,94599.00
2023-05-15T18:44:29.994Z,94599.00
2023-05-15T18:45:30.004Z,94601.00
2023-05-15T18:46:30.003Z,94595.00
2023-05-15T18:47:30.032Z,94599.00
2023-05-15T18:48:29.987Z,94597.00
2023-05-15T18:49:29.992Z,94597.00
2023-05-15T18:50:30.197Z,94598.00
2023-05-15T18:51:30.000Z,94599.00
2023-05-15T18:52:30.008Z,94599.00
2023-05-15T18:53:30.000Z,94601.00
2023-05-15T18:54:30.004Z,94603.00
2023-05-15T18:55:30.011Z,94602.00
2023-05-15T18:56:29.965Z,94604.00
2023-05-15T18:57:30.003Z,94605.00
2023-05-15T18:58:29.997Z,94605.00
2023-05-15T18:59:29.987Z,94604.00
2023-05-15T19:01:30.038Z,94607.00
2023-05-15T19:02:30.015Z,94610.00
2023-05-15T19:03:30.049Z,94613.00
2023-05-15T19:04:29.981Z,94614.00
2023-05-15T19:05:29.955Z,94614.00
2023-05-15T19:06:29.977Z,94616.00
2023-05-15T19:07:29.960Z,94619.00
2023-05-15T19:08:29.962Z,94617.00
2023-05-15T19:09:29.960Z,94616.00
2023-05-15T19:10:29.960Z,94617.00
2023-05-15T19:11:29.932Z,94617.00
2023-05-15T19:12:29.929Z,94616.00
2023-05-15T19:13:29.916Z,94618.00
2023-05-15T19:14:29.947Z,94618.00
2023-05-15T19:15:29.922Z,94619.00
2023-05-15T19:16:29.947Z,94622.00
2023-05-15T19:17:30.025Z,94621.00
2023-05-15T19:18:29.935Z,94622.00
2023-05-15T19:19:29.894Z,94623.00
2023-05-15T19:20:29.902Z,94622.00
2023-05-15T19:21:29.867Z,94624.00
2023-05-15T19:22:29.863Z,94623.00
2023-05-15T19:23:29.858Z,94624.00
2023-05-15T19:24:30.870Z,94623.00
2023-05-15T19:25:29.872Z,94624.00
2023-05-15T19:26:29.918Z,94623.00
2023-05-15T19:27:29.857Z,94625.00
2023-05-15T19:28:29.803Z,94624.00
2023-05-15T19:29:29.850Z,94627.00
2023-05-15T19:30:29.804Z,94627.00
2023-05-15T19:31:31.690Z,94628.00
2023-05-15T19:32:29.909Z,94629.00
2023-05-15T19:33:29.792Z,94630.00
2023-05-15T19:34:29.791Z,94630.00
2023-05-15T19:35:29.775Z,94631.00
2023-05-15T19:36:29.755Z,94631.00
2023-05-15T19:37:29.762Z,94633.00
2023-05-15T19:38:29.808Z,94634.00
2023-05-15T19:39:29.836Z,94633.00
2023-05-15T19:40:29.843Z,94635.00
2023-05-15T19:41:29.866Z,94635.00
2023-05-15T19:42:29.851Z,94636.00
2023-05-15T19:43:29.877Z,94635.00
2023-05-15T19:44:29.908Z,94635.00
2023-05-15T19:45:29.949Z,94635.00
2023-05-15T19:46:30.003Z,94638.00
2023-05-15T19:47:29.988Z,94638.00
2023-05-15T19:48:30.019Z,94638.00
2023-05-15T19:49:30.015Z,94640.00
2023-05-15T19:50:31.466Z,94641.00
2023-05-15T19:51:30.043Z,94644.00
2023-05-15T19:52:30.045Z,94645.00
2023-05-15T19:53:30.027Z,94645.00
2023-05-15T19:54:30.055Z,94645.00
2023-05-15T19:55:30.035Z,94645.00
2023-05-15T19:56:30.022Z,94644.00
2023-05-15T19:57:30.713Z,94646.00
2023-05-15T19:58:30.005Z,94644.00
2023-05-15T19:59:30.062Z,94643.00
2023-05-15T20:00:30.019Z,94646.00
2023-05-15T20:01:30.044Z,94645.00
2023-05-15T20:02:30.086Z,94644.00
2023-05-15T20:03:30.038Z,94644.00
2023-05-15T20:04:29.953Z,94645.00
2023-05-15T20:05:29.987Z,94644.00
2023-05-15T20:06:29.933Z,94644.00
2023-05-15T20:07:29.933Z,94645.00
2023-05-15T20:08:29.985Z,94644.00
2023-05-15T20:09:29.903Z,94644.00
2023-05-15T20:10:29.936Z,94642.00
2023-05-15T20:11:29.923Z,94640.00
2023-05-15T20:12:29.928Z,94639.00
2023-05-15T20:13:29.908Z,94640.00
2023-05-15T20:14:29.899Z,94637.00
2023-05-15T20:15:29.919Z,94638.00
2023-05-15T20:16:29.903Z,94637.00
2023-05-15T20:17:29.936Z,94638.00
2023-05-15T20:18:32.220Z,94636.00
2023-05-15T20:19:30.425Z,94637.00
2023-05-15T20:20:29.865Z,94640.00
2023-05-15T20:21:29.852Z,94639.00
2023-05-15T20:22:29.852Z,94639.00
2023-05-15T20:23:29.845Z,94641.00
2023-05-15T20:24:29.831Z,94641.00
2023-05-15T20:25:30.108Z,94639.00
2023-05-15T20:26:29.803Z,94641.00
2023-05-15T20:27:29.796Z,94639.00
2023-05-15T20:28:29.794Z,94641.00
2023-05-15T20:29:29.793Z,94642.00
2023-05-15T20:30:29.880Z,94641.00
2023-05-15T20:31:29.806Z,94640.00
2023-05-15T20:32:29.887Z,94638.00
2023-05-15T20:33:29.911Z,94638.00
2023-05-15T20:34:29.779Z,94637.00
2023-05-15T20:35:29.788Z,94639.00
2023-05-15T20:36:29.764Z,94636.00
2023-05-15T20:37:29.721Z,94640.00
2023-05-15T20:38:29.723Z,94638.00
2023-05-15T20:39:29.730Z,94640.00
2023-05-15T20:40:29.707Z,94644.00
2023-05-15T20:41:29.737Z,94643.00
2023-05-15T20:42:29.719Z,94643.00
2023-05-15T20:43:29.712Z,94643.00
2023-05-15T20:44:29.695Z,94643.00
2023-05-15T20:45:29.760Z,94641.00
2023-05-15T20:46:30.385Z,94642.00
2023-05-15T20:47:29.697Z,94640.00
2023-05-15T20:48:29.660Z,94640.00
2023-05-15T20:49:29.663Z,94640.00
2023-05-15T20:50:29.742Z,94640.00
2023-05-15T20:51:29.792Z,94643.00
2023-05-15T20:52:29.848Z,94644.00
2023-05-15T20:53:29.878Z,94646.00
2023-05-15T20:54:29.908Z,94648.00
2023-05-15T20:55:29.974Z,94650.00
2023-05-15T20:56:30.023Z,94653.00
2023-05-15T20:57:30.082Z,94655.00
2023-05-15T20:58:30.116Z,94656.00
2023-05-15T20:59:30.185Z,94657.00
2023-05-15T21:00:30.205Z,94656.00
2023-05-15T21:01:30.298Z,94659.00
2023-05-15T21:02:30.351Z,94660.00
2023-05-15T21:03:30.451Z,94659.00
2023-05-15T21:04:30.440Z,94659.00
2023-05-15T21:05:30.496Z,94659.00
2023-05-15T21:06:30.512Z,94660.00
2023-05-15T21:07:30.563Z,94661.00
2023-05-15T21:08:31.249Z,94660.00
2023-05-15T21:09:30.637Z,94662.00
2023-05-15T21:10:30.684Z,94662.00
2023-05-15T21:11:30.743Z,94665.00
2023-05-15T21:12:30.789Z,94667.00
2023-05-15T21:13:30.848Z,94667.00
2023-05-15T21:14:30.936Z,94670.00
2023-05-15T21:15:30.979Z,94669.00
2023-05-15T21:16:31.102Z,94670.00
2023-05-15T21:17:31.091Z,94671.00
2023-05-15T21:18:31.129Z,94670.00
2023-05-15T21:19:31.185Z,94670.00
2023-05-15T21:20:32.835Z,94670.00
2023-05-15T21:21:31.207Z,94672.00
2023-05-15T21:22:31.211Z,94672.00
2023-05-15T21:23:31.209Z,94671.00
2023-05-15T21:24:31.201Z,94672.00
2023-05-15T21:25:31.180Z,94673.00
2023-05-15T21:26:31.184Z,94670.00
2023-05-15T21:27:31.152Z,94670.00
2023-05-15T21:28:31.182Z,94669.00
2023-05-15T21:29:31.166Z,94671.00
2023-05-15T21:30:31.188Z,94671.00
2023-05-15T21:31:31.190Z,94672.00
2023-05-15T21:32:31.191Z,94670.00
2023-05-15T21:33:31.114Z,94671.00
2023-05-15T21:34:31.121Z,94671.00
2023-05-15T21:35:31.112Z,94671.00
2023-05-15T21:36:31.107Z,94668.00
2023-05-15T21:37:31.157Z,94669.00
2023-05-15T21:38:31.120Z,94669.00
2023-05-15T21:39:31.106Z,94669.00
2023-05-15T21:40:31.088Z,94670.00
2023-05-15T21:41:31.094Z,94669.00
2023-05-15T21:42:31.098Z,94671.00
2023-05-15T21:43:31.091Z,94672.00
2023-05-15T21:44:31.055Z,94672.00
2023-05-15T21:45:31.078Z,94674.00
2023-05-15T21:46:31.079Z,94673.00
2023-05-15T21:47:31.064Z,94674.00
2023-05-15T21:48:31.048Z,94672.00
2023-05-15T21:49:31.041Z,94672.00
2023-05-15T21:50:31.021Z,94669.00
2023-05-15T21:51:31.032Z,94672.00
2023-05-15T21:52:31.008Z,94674.00
2023-05-15T21:53:31.006Z,94672.00
2023-05-15T21:54:31.007Z,94674.00
2023-05-15T21:55:30.996Z,94677.00
2023-05-15T21:56:30.986Z,94678.00
2023-05-15T21:57:31.010Z,94676.00
2023-05-15T21:58:31.023Z,94677.00
2023-05-15T21:59:31.021Z,94677.00
2023-05-15T22:00:31.071Z,94679.00
2023-05-15T22:01:31.174Z,94678.00
2023-05-15T22:02:31.254Z,94683.00
2023-05-15T22:03:31.417Z,94682.00
2023-05-15T22:04:31.299Z,94682.00
2023-05-15T22:05:31.367Z,94683.00
2023-05-15T22:06:31.416Z,94684.00
2023-05-15T22:07:31.436Z,94682.00
2023-05-15T22:08:31.474Z,94681.00
2023-05-15T22:09:31.519Z,94681.00
2023-05-15T22:10:31.559Z,94681.00
2023-05-15T22:11:31.626Z,94682.00
2023-05-15T22:12:31.671Z,94683.00
2023-05-15T22:13:31.671Z,94680.00
2023-05-15T22:14:31.697Z,94681.00
2023-05-15T22:15:31.777Z,94682.00
2023-05-15T22:16:31.859Z,94682.00
2023-05-15T22:17:31.874Z,94683.00
2023-05-15T22:18:31.984Z,94683.00
2023-05-15T22:19:33.204Z,94683.00
2023-05-15T22:20:32.010Z,94682.00
2023-05-15T22:21:32.072Z,94682.00
2023-05-15T22:22:32.131Z,94680.00
2023-05-15T22:23:32.199Z,94680.00
2023-05-15T22:24:32.264Z,94683.00
2023-05-15T22:25:32.409Z,94684.00
2023-05-15T22:26:32.347Z,94685.00
2023-05-15T22:27:32.401Z,94686.00
2023-05-15T22:28:32.403Z,94687.00
2023-05-15T22:29:32.442Z,94689.00
2023-05-15T22:30:32.457Z,94688.00
2023-05-15T22:31:32.521Z,94690.00
2023-05-15T22:32:32.487Z,94689.00
2023-05-15T22:33:32.455Z,94687.00
2023-05-15T22:34:32.455Z,94685.00
2023-05-15T22:35:32.486Z,94683.00
2023-05-15T22:36:32.522Z,94680.00
2023-05-15T22:37:32.484Z,94678.00
2023-05-15T22:38:32.503Z,94676.00
2023-05-15T22:39:32.494Z,94674.00
2023-05-15T22:40:32.488Z,94672.00
2023-05-15T22:41:32.490Z,94672.00
2023-05-15T22:42:32.473Z,94671.00
2023-05-15T22:43:32.482Z,94672.00
2023-05-15T22:44:32.499Z,94670.00
2023-05-15T22:45:32.533Z,94670.00
2023-05-15T22:46:32.526Z,94668.00
2023-05-15T22:47:32.486Z,94668.00
2023-05-15T22:48:32.480Z,94663.00
2023-05-15T22:49:32.528Z,94661.00
2023-05-15T22:50:32.480Z,94659.00
2023-05-15T22:51:32.454Z,94656.00
2023-05-15T22:52:32.477Z,94653.00
2023-05-15T22:53:32.471Z,94652.00
2023-05-15T22:54:32.497Z,94652.00
2023-05-15T22:55:32.498Z,94650.00
2023-05-15T22:56:32.467Z,94656.00
2023-05-15T22:57:32.476Z,94657.00
2023-05-15T22:58:32.486Z,94655.00
2023-05-15T22:59:32.467Z,94657.00
2023-05-15T23:00:32.454Z,94657.00
2023-05-15T23:01:32.457Z,94655.00
2023-05-15T23:02:32.547Z,94658.00
2023-05-15T23:03:32.478Z,94658.00
2023-05-15T23:04:32.427Z,94660.00
2023-05-15T23:05:32.418Z,94660.00
2023-05-15T23:06:32.392Z,94659.00
2023-05-15T23:07:32.390Z,94661.00
2023-05-15T23:08:32.426Z,94658.00
2023-05-15T23:09:32.394Z,94662.00
2023-05-15T23:10:32.389Z,94664.00
2023-05-15T23:11:32.384Z,94661.00
2023-05-15T23:12:32.375Z,94662.00
2023-05-15T23:13:32.375Z,94660.00
2023-05-15T23:14:32.369Z,94662.00
2023-05-15T23:15:32.368Z,94657.00
2023-05-15T23:16:32.341Z,94658.00
2023-05-15T23:17:32.377Z,94659.00
2023-05-15T23:18:32.331Z,94658.00
2023-05-15T23:19:32.322Z,94658.00
2023-05-15T23:20:32.352Z,94658.00
2023-05-15T23:21:32.329Z,94654.00
2023-05-15T23:22:32.315Z,94656.00
2023-05-15T23:23:32.314Z,94654.00
2023-05-15T23:24:32.302Z,94652.00
2023-05-15T23:25:32.317Z,94652.00
2023-05-15T23:26:32.330Z,94650.00
2023-05-15T23:27:32.334Z,94649.00
2023-05-15T23:28:32.330Z,94646.00
2023-05-15T23:29:32.367Z,94647.00
2023-05-15T23:30:32.351Z,94646.00
2023-05-15T23:31:32.397Z,94642.00
2023-05-15T23:32:32.455Z,94646.00
2023-05-15T23:33:32.385Z,94639.00
2023-05-15T23:34:32.412Z,94643.00
2023-05-15T23:35:32.458Z,94644.00
2023-05-15T23:36:32.446Z,94642.00
2023-05-15T23:37:32.469Z,94640.00
2023-05-15T23:38:32.449Z,94639.00
2023-05-15T23:39:32.485Z,94637.00
2023-05-15T23:40:32.535Z,94640.00
2023-05-15T23:41:32.525Z,94639.00
2023-05-15T23:42:32.543Z,94639.00
2023-05-15T23:43:32.562Z,94640.00
2023-05-15T23:44:32.583Z,94642.00
2023-05-15T23:45:32.612Z,94642.00
2023-05-15T23:46:32.682Z,94642.00
2023-05-15T23:47:32.669Z,94643.00
2023-05-15T23:48:32.607Z,94643.00
2023-05-15T23:49:32.619Z,94642.00
2023-05-15T23:50:32.644Z,94642.00
2023-05-15T23:51:32.649Z,94642.00
2023-05-15T23:52:32.681Z,94641.00
2023-05-15T23:53:32.688Z,94641.00
2023-05-15T23:54:32.692Z,94641.00
2023-05-15T23:55:32.732Z,94640.00
2023-05-15T23:56:32.717Z,94640.00
2023-05-15T23:57:34.350Z,94639.00
2023-05-15T23:58:32.727Z,94640.00
2023-05-15T23:59:32.716Z,94641.00
